Detall de PIREP

Printer-friendly versionPDF version

[2012/04/13 20:28:00]
Flight IATA:CT1004
Pilot Number:037
Company ICAO:CAT
Aircraft Type:B752/E
PAX:0
Departing Airport: LEBL
Destination Airport: LTBA
Alternate Airport:LTAC
Online: VATSIM
Route:VERSO UM601 ALG UM603 EKI
Flight Level:F410
No Slew and time accel
No pause
Crash detect
Detect pilot in Cockpit between each 30 and 45 minutes
20:28 Zero fuel Weight: 141290 Lbs, Fuel Weight: 35280 Lbs
20:28 VATSIM:LEBL 132000Z 07008KT 9999 SCT025 14/10 Q1004 NOSIG
20:28 VATSIM:LTBA 131950Z 12004KT 060V190 9999 SCT035 BKN100 17/08 Q1005 NOSIG
21:07 Take-off
21:07 Take off Weight: 174087 Lbs
21:07 Wind: 052º @ 007 Knots Heading: 064º
21:07 POS N41º 17´ 15´´ E002º 05´ 24´´
21:07 Gear Up: 189 Knots
21:07 Flaps:2 at 189 Knots
21:07 Flaps:1 at 220 Knots
21:08 Flaps:0 at 221 Knots
21:22 Wind:303º@023 Knots Heading: 096º Ground Speed: 350 Knots Altitude 38759 ft
21:22 TOC
21:22 Fuel Weight: 28980 Lb
21:24 TOD
21:24 Fuel Weight: 28767 Lb
21:37 Wind:317º@031 Knots Heading: 096º Ground Speed: 485 Knots Altitude 38540 ft
21:47 TOC
21:47 Fuel Weight: 25788 Lb
21:52 Wind:260º@032 Knots Heading: 084º Ground Speed: 488 Knots Altitude 40465 ft
22:07 Wind:030º@015 Knots Heading: 084º Ground Speed: 436 Knots Altitude 40321 ft
22:12 TOD
22:12 Fuel Weight: 23480 Lb
22:22 Wind:069º@007 Knots Heading: 107º Ground Speed: 458 Knots Altitude 38290 ft
22:31 TOC
22:31 Fuel Weight: 21627 Lb
22:37 Wind:163º@036 Knots Heading: 093º Ground Speed: 444 Knots Altitude 40360 ft
22:52 Wind:153º@052 Knots Heading: 096º Ground Speed: 431 Knots Altitude 40465 ft
23:07 Wind:144º@012 Knots Heading: 098º Ground Speed: 444 Knots Altitude 40610 ft
23:22 Wind:092º@006 Knots Heading: 079º Ground Speed: 462 Knots Altitude 40790 ft
23:33 TOD
23:33 Fuel Weight: 15336 Lb
23:37 Wind:135º@017 Knots Heading: 085º Ground Speed: 377 Knots Altitude 28963 ft
00:04 Flaps:1 at 200 Knots
00:04 Flaps:2 at 190 Knots
00:05 Flaps:3 at 171 Knots
00:06 Gear Down: 150 Knots
00:06 Flaps:4 at 155 Knots
00:07 Flaps:5 at 154 Knots
00:08 Flaps:6 at 138 Knots
00:08 TouchDown:Rate -248 ft/min Speed: 125 Knots
00:08 VATSIM:LTBA 132320Z 07006KT 9999 SCT035 BKN100 15/09 Q1005 RESHRA NOSIG
00:08 Land
00:08 Wind:066º@006 Knots
00:08 Heading: 179º
00:08 Flight Duration: 03:01
00:08 Landing Weight: 154463 Lbs
00:08 POS N40º 58´ 48´´ E028º 48´ 32´´
00:11 Parking brakes on
00:11 Block to Block Duration: 03:04
00:11 Final Fuel: 12799 Lbls
00:11 Spent Fuel: 22480 Lbls
00:11 Flight Length: 1060 NM
00:11 TOD Land Length: 97 NM

Exportar CSV

Powered by Drupal - Modified by Danger4k